WXForecasting.com
 BROWN COUNTY, SD  -  River Flood Warning River Flood Warning  
Aberdeen, SD - Weather Station Data
 
Daily Summary for April 25, 2018 Units:  English    Metric   Both
Next Day »
Daily Weekly Monthly Yearly Custom
  Current: High: Low: Average:
Temperature: 65.6 °F 66.1 °F 27.7 °F 45 °F
Dew Point: 31.0 °F 37.0 °F 24.0 °F 30.4 °F
Humidity: 27% 88% 27% 62%
Wind Speed: 9.0mph 19.0mph 0.0mph 3.2mph
Wind Gust: 16.0mph 22.0mph - -
WindWSW - - SSW
Pressure: 29.94 in 30.32 in 29.94 in -
Precipitation: 0.00 in      
Historical Graphs
 
 
Tabular Data for April 25, 2018
Time Temperature Dew Point Pressure Wind Wind Speed Wind Gust Humidity Rainfall Rate (Hourly) solar Conditions
00:14 39.3 °F 30.0 °F 30.31 in Calm     69% 0.00 in 0 W/m2
00:29 37.8 °F 29.0 °F 30.32 in Calm     71% 0.00 in 0 W/m2
00:44 36.8 °F 29.0 °F 30.32 in Calm     73% 0.00 in 0 W/m2
00:59 35.8 °F 29.0 °F 30.32 in Calm     75% 0.00 in 0 W/m2
01:14 34.9 °F 28.0 °F 30.32 in Calm     76% 0.00 in 0 W/m2
01:29 34.2 °F 28.0 °F 30.32 in Calm     77% 0.00 in 0 W/m2
01:44 33.5 °F 27.0 °F 30.32 in Calm     78% 0.00 in 0 W/m2
01:59 33.0 °F 27.0 °F 30.31 in Calm     80% 0.00 in 0 W/m2
02:14 32.4 °F 27.0 °F 30.31 in Calm     80% 0.00 in 0 W/m2
02:29 32.3 °F 27.0 °F 30.31 in Calm     82% 0.00 in 0 W/m2
02:44 31.7 °F 27.0 °F 30.30 in Calm     82% 0.00 in 0 W/m2
02:59 31.4 °F 27.0 °F 30.30 in Calm     83% 0.00 in 0 W/m2
03:14 31.1 °F 27.0 °F 30.30 in Calm     84% 0.00 in 0 W/m2
03:29 30.9 °F 27.0 °F 30.30 in Calm     84% 0.00 in 0 W/m2
03:44 30.8 °F 27.0 °F 30.30 in Calm     85% 0.00 in 0 W/m2
04:00 30.4 °F 26.0 °F 30.30 in Calm     84% 0.00 in 0 W/m2
04:14 29.9 °F 26.0 °F 30.30 in Calm     85% 0.00 in 0 W/m2
04:29 29.6 °F 26.0 °F 30.30 in Calm     85% 0.00 in 0 W/m2
04:44 29.4 °F 26.0 °F 30.30 in Calm     85% 0.00 in 0 W/m2
04:59 29.5 °F 26.0 °F 30.30 in Calm     86% 0.00 in 0 W/m2
05:14 29.6 °F 26.0 °F 30.29 in Calm     86% 0.00 in 0 W/m2
05:29 29.2 °F 25.0 °F 30.28 in Calm     85% 0.00 in 0 W/m2
05:45 28.8 °F 25.0 °F 30.28 in Calm     86% 0.00 in 0 W/m2
06:00 28.3 °F 25.0 °F 30.28 in Calm     86% 0.00 in 0 W/m2
06:15 28.1 °F 25.0 °F 30.28 in North 1.0 mph 2.0 mph 86% 0.00 in 0 W/m2
06:30 28.3 °F 25.0 °F 30.27 in Calm   1.0 mph 86% 0.00 in 0 W/m2
06:45 28.0 °F 24.0 °F 30.27 in Calm     86% 0.00 in 12 W/m2
07:00 27.7 °F 24.0 °F 30.27 in Calm     86% 0.00 in 21 W/m2
07:15 28.1 °F 25.0 °F 30.27 in Calm     87% 0.00 in 28 W/m2
07:30 29.4 °F 26.0 °F 30.27 in Calm     88% 0.00 in 35 W/m2
07:45 31.3 °F 28.0 °F 30.27 in Calm   1.0 mph 88% 0.00 in 156 W/m2
08:00 33.2 °F 30.0 °F 30.27 in Calm   3.0 mph 86% 0.00 in 202 W/m2
08:15 35.3 °F 31.0 °F 30.26 in North 1.0 mph 4.0 mph 84% 0.00 in 257 W/m2
08:30 37.5 °F 33.0 °F 30.25 in SSE 2.0 mph 5.0 mph 82% 0.00 in 306 W/m2
08:45 39.5 °F 34.0 °F 30.25 in South 2.0 mph 5.0 mph 79% 0.00 in 353 W/m2
09:00 42.2 °F 34.0 °F 30.25 in SSW 4.0 mph 7.0 mph 74% 0.00 in 404 W/m2
09:15 44.3 °F 35.0 °F 30.25 in SW 1.0 mph 6.0 mph 70% 0.00 in 448 W/m2
09:30 46.0 °F 35.0 °F 30.23 in SSW 3.0 mph 8.0 mph 66% 0.00 in 496 W/m2
09:45 47.4 °F 36.0 °F 30.23 in SSW 4.0 mph 9.0 mph 65% 0.00 in 538 W/m2
10:00 49.0 °F 36.0 °F 30.22 in SSW 5.0 mph 10.0 mph 62% 0.00 in 580 W/m2
10:16 50.6 °F 37.0 °F 30.22 in SSE 4.0 mph 12.0 mph 59% 0.00 in 615 W/m2
10:31 51.7 °F 37.0 °F 30.21 in SW 6.0 mph 10.0 mph 57% 0.00 in 650 W/m2
10:46 52.9 °F 37.0 °F 30.20 in SSW 4.0 mph 14.0 mph 55% 0.00 in 680 W/m2
11:01 54.4 °F 37.0 °F 30.19 in South 5.0 mph 10.0 mph 53% 0.00 in 729 W/m2
11:16 55.8 °F 37.0 °F 30.18 in SSW 6.0 mph 14.0 mph 49% 0.00 in 756 W/m2
11:31 57.1 °F 36.0 °F 30.17 in SSW 1.0 mph 14.0 mph 46% 0.00 in 761 W/m2
11:46 58.6 °F 36.0 °F 30.16 in WSW 8.0 mph 14.0 mph 43% 0.00 in 786 W/m2
12:01 59.2 °F 35.0 °F 30.16 in WSW 2.0 mph 14.0 mph 40% 0.00 in 817 W/m2
12:16 60.2 °F 34.0 °F 30.14 in SW 8.0 mph 17.0 mph 37% 0.00 in 814 W/m2
12:31 60.4 °F 34.0 °F 30.12 in SW 8.0 mph 14.0 mph 37% 0.00 in 886 W/m2
12:46 60.9 °F 34.0 °F 30.11 in South 1.0 mph 12.0 mph 36% 0.00 in 868 W/m2
13:01 61.4 °F 33.0 °F 30.10 in SW 6.0 mph 14.0 mph 34% 0.00 in 882 W/m2
13:16 62.0 °F 32.0 °F 30.10 in South 5.0 mph 16.0 mph 32% 0.00 in 886 W/m2
13:31 62.6 °F 33.0 °F 30.09 in SW 7.0 mph 16.0 mph 33% 0.00 in 861 W/m2
13:46 62.2 °F 30.0 °F 30.08 in WSW 15.0 mph 22.0 mph 30% 0.00 in 884 W/m2
14:01 63.1 °F 31.0 °F 30.06 in SW 11.0 mph 22.0 mph 30% 0.00 in 851 W/m2
14:17 63.5 °F 31.0 °F 30.06 in South 8.0 mph 18.0 mph 29% 0.00 in 816 W/m2
14:32 64.5 °F 32.0 °F 30.05 in SW 7.0 mph 16.0 mph 30% 0.00 in 770 W/m2
14:47 64.4 °F 32.0 °F 30.04 in SSW 3.0 mph 18.0 mph 30% 0.00 in 772 W/m2
15:02 64.1 °F 31.0 °F 30.02 in SSW 8.0 mph 16.0 mph 29% 0.00 in 729 W/m2
15:17 64.8 °F 32.0 °F 30.01 in SSW 6.0 mph 15.0 mph 29% 0.00 in 744 W/m2
15:32 65.2 °F 32.0 °F 30.00 in SSW 5.0 mph 21.0 mph 29% 0.00 in 738 W/m2
15:47 65.4 °F 33.0 °F 29.98 in SW 10.0 mph 18.0 mph 30% 0.00 in 715 W/m2
16:02 66.1 °F 33.0 °F 29.98 in WSW 19.0 mph 19.0 mph 29% 0.00 in 661 W/m2
16:17 65.8 °F 33.0 °F 29.97 in SW 7.0 mph 21.0 mph 30% 0.00 in 492 W/m2
16:32 65.2 °F 32.0 °F 29.96 in SSW 6.0 mph 18.0 mph 29% 0.00 in 448 W/m2
16:47 65.7 °F 33.0 °F 29.95 in WSW 12.0 mph 21.0 mph 30% 0.00 in 517 W/m2
17:02 65.6 °F 31.0 °F 29.94 in WSW 9.0 mph 16.0 mph 27% 0.00 in 304 W/m2